Time;durP1;ratioP1;P1;durP2;ratioP2;P2;SDS_P1;SDS_P2;PMS_P1;PMS_P2;Temp;Humidity;BMP_temperature;BMP_pressure;BME280_temperature;BME280_humidity;BME280_pressure;Samples;Min_cycle;Max_cycle;Signal;HPM_P1;HPM_P2
2022/11/07 00:00:51;;;;;;;8.93;3.63;;;;;;;9.33;100.00;100580.81;5246323;28;20562;-68
2022/11/07 00:03:23;;;;;;;7.80;3.80;;;;;;;9.33;100.00;100577.31;5247188;28;20506;-68
2022/11/07 00:05:54;;;;;;;9.57;3.63;;;;;;;9.30;100.00;100586.38;5245199;28;20037;-68
2022/11/07 00:08:30;;;;;;;9.07;3.80;;;;;;;9.30;100.00;100578.41;5241955;28;20032;-68
2022/11/07 00:11:03;;;;;;;9.75;3.78;;;;;;;9.28;100.00;100595.44;5244761;28;20036;-68
2022/11/07 00:13:35;;;;;;;7.32;3.20;;;;;;;9.25;100.00;100590.34;5243180;28;20032;-68
2022/11/07 00:16:08;;;;;;;10.85;4.07;;;;;;;9.20;100.00;100591.53;5245501;28;20052;-68
2022/11/07 00:18:40;;;;;;;7.18;3.70;;;;;;;9.17;100.00;100596.25;5245230;28;20028;-68
2022/11/07 00:21:11;;;;;;;9.93;4.13;;;;;;;9.13;100.00;100587.63;5237414;28;20364;-68
2022/11/07 00:23:42;;;;;;;13.20;4.22;;;;;;;9.12;100.00;100595.72;5244010;28;20115;-68
2022/11/07 00:26:14;;;;;;;8.15;3.97;;;;;;;9.10;100.00;100597.66;5241693;28;20386;-68
2022/11/07 00:28:45;;;;;;;8.27;3.65;;;;;;;9.09;100.00;100599.47;5245183;28;20103;-68
2022/11/07 00:31:17;;;;;;;8.93;4.00;;;;;;;9.08;100.00;100597.78;5246484;28;20479;-68
2022/11/07 00:33:48;;;;;;;9.35;3.90;;;;;;;9.07;100.00;100589.88;5246931;28;20021;-68
2022/11/07 00:36:27;;;;;;;8.45;3.72;;;;;;;9.11;100.00;100602.88;5243332;28;20532;-68
2022/11/07 00:38:59;;;;;;;7.93;3.67;;;;;;;9.05;100.00;100598.00;5244185;28;20445;-68
2022/11/07 00:41:30;;;;;;;9.07;3.30;;;;;;;9.10;100.00;100598.50;5240159;28;20041;-69
2022/11/07 00:44:01;;;;;;;9.15;3.40;;;;;;;9.02;100.00;100606.22;5240771;28;20028;-68
2022/11/07 00:46:32;;;;;;;7.60;3.88;;;;;;;9.02;100.00;100600.88;5244975;28;20036;-69
2022/11/07 00:49:04;;;;;;;9.65;3.95;;;;;;;8.99;100.00;100604.63;5242746;28;20028;-69
2022/11/07 00:51:35;;;;;;;9.20;4.10;;;;;;;9.06;100.00;100614.81;5243681;28;20025;-68
2022/11/07 00:54:06;;;;;;;10.90;3.53;;;;;;;9.06;100.00;100610.34;5243303;28;20391;-68
2022/11/07 00:56:38;;;;;;;9.95;3.78;;;;;;;9.02;100.00;100619.53;5245547;28;20028;-68
2022/11/07 00:59:09;;;;;;;7.75;3.47;;;;;;;9.01;100.00;100617.81;5243014;28;20029;-69
2022/11/07 01:01:40;;;;;;;8.40;3.50;;;;;;;9.00;100.00;100621.44;5241616;28;20059;-64
2022/11/07 01:07:02;;;;;;;11.63;3.80;;;;;;;8.99;100.00;100611.75;5245679;28;20041;-63
2022/11/07 01:09:34;;;;;;;12.15;4.97;;;;;;;8.97;100.00;100626.97;5242801;28;20029;-64
2022/11/07 01:12:05;;;;;;;6.90;3.50;;;;;;;9.01;100.00;100625.78;5244939;28;20037;-64
2022/11/07 01:14:37;;;;;;;9.27;3.72;;;;;;;9.01;100.00;100621.34;5244978;28;20032;-63
2022/11/07 01:17:08;;;;;;;7.95;3.40;;;;;;;9.12;100.00;100622.34;5245187;28;20025;-63
2022/11/07 01:19:39;;;;;;;10.50;3.65;;;;;;;9.01;100.00;100639.97;5242331;28;20199;-63
2022/11/07 01:22:11;;;;;;;9.10;3.78;;;;;;;9.01;100.00;100647.06;5240346;28;20035;-63
2022/11/07 01:24:42;;;;;;;10.93;3.42;;;;;;;9.02;100.00;100649.63;5242037;28;20045;-64
2022/11/07 01:27:13;;;;;;;5.75;3.20;;;;;;;8.99;100.00;100647.22;5244572;28;20025;-63
2022/11/07 01:29:44;;;;;;;9.10;3.22;;;;;;;9.06;100.00;100644.94;5243416;28;20124;-63
2022/11/07 01:32:16;;;;;;;9.77;4.53;;;;;;;9.00;100.00;100650.72;5243006;28;20029;-63
2022/11/07 01:34:47;;;;;;;8.88;3.58;;;;;;;9.06;100.00;100652.94;5246920;28;20158;-63
2022/11/07 01:37:18;;;;;;;14.18;4.22;;;;;;;9.02;100.00;100648.78;5248480;28;20029;-64
2022/11/07 01:39:50;;;;;;;8.65;3.40;;;;;;;9.03;100.00;100646.03;5245726;28;20044;-63
2022/11/07 01:42:21;;;;;;;11.07;3.65;;;;;;;9.04;100.00;100649.53;5245995;28;20108;-65
2022/11/07 01:44:56;;;;;;;10.13;3.55;;;;;;;9.03;100.00;100654.00;5247212;28;20044;-63
2022/11/07 01:47:31;;;;;;;8.27;4.05;;;;;;;9.02;100.00;100648.78;5241401;28;20035;-63
2022/11/07 01:50:05;;;;;;;8.98;3.58;;;;;;;9.08;100.00;100653.66;5245955;28;20036;-64
2022/11/07 01:52:40;;;;;;;8.82;3.70;;;;;;;9.05;100.00;100661.88;5249200;28;20475;-64
2022/11/07 01:55:21;;;;;;;11.52;3.80;;;;;;;9.05;100.00;100648.56;5244017;28;20037;-64
2022/11/07 01:58:06;;;;;;;7.57;3.55;;;;;;;9.09;100.00;100651.84;5246264;28;20147;-64
2022/11/07 02:00:37;;;;;;;;;;;;;;;9.06;100.00;100658.25;5246569;28;20032;-64
2022/11/07 02:03:11;;;;;;;8.27;4.00;;;;;;;9.07;100.00;100656.41;5246678;28;20054;-63
2022/11/07 02:05:47;;;;;;;9.95;3.65;;;;;;;9.10;100.00;100654.38;5247190;28;20383;-63
2022/11/07 02:08:20;;;;;;;11.57;4.30;;;;;;;9.10;100.00;100667.69;5247100;28;20111;-63
2022/11/07 02:10:52;;;;;;;11.50;3.60;;;;;;;9.15;100.00;100654.91;5248893;28;20024;-63
2022/11/07 02:13:26;;;;;;;11.57;3.70;;;;;;;9.14;100.00;100655.03;5245950;28;21602;-64
2022/11/07 02:16:00;;;;;;;9.98;3.72;;;;;;;9.12;100.00;100663.13;5247303;28;20036;-64
2022/11/07 02:18:35;;;;;;;8.52;3.38;;;;;;;9.21;100.00;100667.75;5244948;28;20082;-63
2022/11/07 02:21:16;;;;;;;10.32;3.88;;;;;;;9.12;100.00;100660.44;5245109;28;20067;-63
2022/11/07 02:23:57;;;;;;;9.18;4.30;;;;;;;9.15;100.00;100662.91;5246980;28;20474;-63
2022/11/07 02:26:29;;;;;;;10.48;3.72;;;;;;;9.20;100.00;100659.88;5249099;28;20025;-63
2022/11/07 02:29:03;;;;;;;10.25;3.58;;;;;;;9.23;100.00;100657.00;5247838;28;21166;-64
2022/11/07 02:31:35;;;;;;;8.98;4.00;;;;;;;9.19;100.00;100659.03;5242332;28;20113;-63
2022/11/07 02:34:06;;;;;;;9.80;3.58;;;;;;;9.21;100.00;100656.28;5243863;28;20132;-63
2022/11/07 02:36:37;;;;;;;12.70;3.95;;;;;;;9.17;100.00;100666.28;5247311;28;20444;-64
2022/11/07 02:39:09;;;;;;;13.48;3.60;;;;;;;9.15;100.00;100662.91;5244014;28;20495;-64
2022/11/07 02:41:40;;;;;;;12.27;4.00;;;;;;;9.17;100.00;100660.13;5244251;28;20029;-64
2022/11/07 02:44:11;;;;;;;12.77;4.32;;;;;;;9.20;100.00;100655.44;5246704;28;20032;-63
2022/11/07 02:46:44;;;;;;;12.75;3.92;;;;;;;9.27;100.00;100650.50;5247197;28;20411;-64
2022/11/07 02:49:15;;;;;;;9.60;3.42;;;;;;;9.26;100.00;100651.44;5248852;28;20332;-63
2022/11/07 02:51:46;;;;;;;12.75;3.70;;;;;;;9.22;100.00;100658.84;5243654;28;20036;-63
2022/11/07 02:54:17;;;;;;;7.95;3.67;;;;;;;9.21;100.00;100666.94;5243493;28;20147;-63
2022/11/07 02:56:49;;;;;;;8.50;3.80;;;;;;;9.19;100.00;100661.72;5243991;28;20025;-64
2022/11/07 02:59:20;;;;;;;12.95;3.70;;;;;;;9.18;100.00;100652.00;5247112;28;20021;-63
2022/11/07 03:01:51;;;;;;;11.55;3.72;;;;;;;9.17;100.00;100639.69;5246025;28;20087;-63
2022/11/07 03:04:23;;;;;;;15.70;4.00;;;;;;;9.21;100.00;100645.63;5246190;28;20046;-63
2022/11/07 03:06:54;;;;;;;12.00;3.90;;;;;;;9.19;100.00;100635.09;5245758;28;20043;-63
2022/11/07 03:09:26;;;;;;;9.48;3.28;;;;;;;9.23;100.00;100643.69;5247927;28;20033;-63
2022/11/07 03:11:57;;;;;;;14.13;4.35;;;;;;;9.22;100.00;100645.53;5242261;28;20071;-64
2022/11/07 03:14:28;;;;;;;14.95;3.80;;;;;;;9.21;100.00;100651.78;5246907;28;20032;-63
2022/11/07 03:17:00;;;;;;;12.18;3.75;;;;;;;9.19;100.00;100651.06;5245372;28;20025;-63
2022/11/07 03:19:31;;;;;;;16.10;4.40;;;;;;;9.20;100.00;100655.44;5245564;28;20160;-63
2022/11/07 03:22:03;;;;;;;14.35;4.03;;;;;;;9.19;100.00;100655.53;5247317;28;20040;-63
2022/11/07 03:24:34;;;;;;;10.85;3.58;;;;;;;9.27;100.00;100654.97;5243837;28;20037;-63
2022/11/07 03:27:05;;;;;;;13.10;3.35;;;;;;;9.21;100.00;100651.78;5243022;28;20601;-63
2022/11/07 03:29:36;;;;;;;12.77;3.70;;;;;;;9.18;100.00;100653.81;5244983;28;20029;-63
2022/11/07 03:32:08;;;;;;;12.27;3.70;;;;;;;9.19;100.00;100648.41;5242222;28;20107;-63
2022/11/07 03:34:39;;;;;;;10.77;3.20;;;;;;;9.19;100.00;100648.41;5246482;28;20029;-64
2022/11/07 03:37:10;;;;;;;13.88;3.88;;;;;;;9.22;100.00;100639.31;5241455;28;20033;-64
2022/11/07 03:39:41;;;;;;;13.02;3.55;;;;;;;9.28;100.00;100654.00;5242461;28;20041;-63
2022/11/07 03:42:13;;;;;;;10.02;3.75;;;;;;;9.28;100.00;100659.31;5243776;28;20123;-64
2022/11/07 03:44:44;;;;;;;13.27;3.78;;;;;;;9.31;100.00;100659.09;5246586;28;20454;-63
2022/11/07 03:47:15;;;;;;;12.23;3.42;;;;;;;9.33;100.00;100659.84;5243756;28;20124;-63
2022/11/07 03:49:47;;;;;;;15.70;3.65;;;;;;;9.39;100.00;100659.38;5246171;28;20071;-64
2022/11/07 03:52:18;;;;;;;12.18;3.35;;;;;;;9.36;100.00;100660.47;5248085;28;20123;-64
2022/11/07 03:54:49;;;;;;;12.25;3.70;;;;;;;9.39;100.00;100651.38;5246651;28;20411;-63
2022/11/07 03:57:20;;;;;;;16.17;3.95;;;;;;;9.37;100.00;100659.47;5243893;28;20473;-63
2022/11/07 03:59:52;;;;;;;12.15;3.25;;;;;;;9.38;100.00;100647.88;5244264;28;20431;-63
2022/11/07 04:02:23;;;;;;;20.90;3.78;;;;;;;9.42;100.00;100653.84;5243585;28;20025;-64
2022/11/07 04:04:54;;;;;;;10.68;3.38;;;;;;;9.44;100.00;100648.41;5244787;28;21853;-63
2022/11/07 04:07:25;;;;;;;14.60;3.45;;;;;;;9.46;100.00;100649.13;5244267;28;20029;-63
2022/11/07 04:09:57;;;;;;;11.85;3.55;;;;;;;9.45;100.00;100645.59;5245387;28;20040;-63
2022/11/07 04:18:08;;;;;;;19.88;3.80;;;;;;;9.54;100.00;100649.38;5243262;28;20037;-63
2022/11/07 04:20:39;;;;;;;13.23;3.22;;;;;;;9.50;100.00;100653.25;5246444;28;20025;-64
2022/11/07 04:23:10;;;;;;;8.57;2.78;;;;;;;9.52;100.00;100648.66;5245143;28;20056;-63
2022/11/07 04:28:32;;;;;;;14.55;3.45;;;;;;;9.61;100.00;100658.63;5245520;28;20048;-64
2022/11/07 04:31:03;;;;;;;14.95;3.33;;;;;;;9.48;100.00;100647.19;5244727;28;20028;-64
2022/11/07 04:33:35;;;;;;;13.10;3.47;;;;;;;9.48;100.00;100661.34;5244798;28;20040;-64
2022/11/07 04:36:06;;;;;;;14.52;3.15;;;;;;;9.44;100.00;100670.53;5246455;28;20035;-63
2022/11/07 04:38:38;;;;;;;14.43;3.08;;;;;;;9.38;100.00;100663.84;5244824;28;20048;-64
2022/11/07 04:41:18;;;;;;;16.27;3.38;;;;;;;9.40;100.00;100671.75;5248662;28;20118;-63
2022/11/07 04:43:50;;;;;;;13.40;3.80;;;;;;;9.38;100.00;100658.53;5244524;28;20020;-64
2022/11/07 04:46:22;;;;;;;14.93;3.67;;;;;;;9.40;100.00;100666.41;5246644;28;20041;-63
2022/11/07 04:48:53;;;;;;;12.05;2.88;;;;;;;9.38;100.00;100663.84;5245495;28;20037;-64
2022/11/07 04:51:24;;;;;;;15.50;3.35;;;;;;;9.45;100.00;100656.25;5243996;28;20033;-64
2022/11/07 04:53:56;;;;;;;15.07;3.30;;;;;;;9.46;100.00;100665.94;5241826;28;20136;-64
2022/11/07 04:56:27;;;;;;;16.08;3.40;;;;;;;9.47;100.00;100666.78;5244213;28;20483;-63
2022/11/07 04:58:58;;;;;;;15.38;3.08;;;;;;;9.46;100.00;100673.09;5243250;28;20033;-64
2022/11/07 05:01:29;;;;;;;14.30;3.08;;;;;;;9.44;100.00;100662.56;5240929;28;20068;-63
2022/11/07 05:04:01;;;;;;;11.40;3.55;;;;;;;9.47;100.00;100661.47;5243315;28;20045;-64
2022/11/07 05:06:35;;;;;;;13.80;3.20;;;;;;;9.47;100.00;100675.63;5244940;28;20865;-63
2022/11/07 05:09:08;;;;;;;13.38;3.17;;;;;;;9.47;100.00;100664.97;5246619;28;20748;-63
2022/11/07 05:11:39;;;;;;;13.43;2.92;;;;;;;9.49;100.00;100676.38;5247989;28;20075;-63
2022/11/07 05:14:10;;;;;;;12.35;2.78;;;;;;;9.50;100.00;100671.91;5250492;28;20028;-63
2022/11/07 05:16:42;;;;;;;18.27;4.45;;;;;;;9.46;100.00;100681.94;5250615;28;20112;-63
2022/11/07 05:19:18;;;;;;;17.02;3.22;;;;;;;9.48;100.00;100679.16;5247625;28;20143;-63
2022/11/07 05:23:10;;;;;;;13.70;2.90;;;;;;;9.45;100.00;100680.22;5249519;28;20703;-63
2022/11/07 05:24:40;;;;;;;14.20;3.33;;;;;;;9.47;100.00;100682.78;5248233;28;20461;-63
2022/11/07 05:27:17;;;;;;;19.45;3.72;;;;;;;9.51;100.00;100679.78;5249185;28;20035;-63
2022/11/07 05:29:49;;;;;;;13.38;2.83;;;;;;;9.50;100.00;100683.41;5248276;28;20029;-64
2022/11/07 05:32:20;;;;;;;15.63;3.63;;;;;;;9.51;100.00;100677.13;5248509;28;20673;-64
2022/11/07 05:34:51;;;;;;;14.10;2.90;;;;;;;9.55;100.00;100686.56;5250298;28;20410;-64
2022/11/07 05:37:22;;;;;;;13.35;3.00;;;;;;;9.56;100.00;100676.75;5248862;28;20071;-63
2022/11/07 05:39:54;;;;;;;14.60;3.03;;;;;;;9.56;100.00;100688.25;5246862;28;20045;-64
2022/11/07 05:42:25;;;;;;;15.00;3.22;;;;;;;9.58;100.00;100685.47;5247389;28;20049;-63
2022/11/07 05:44:56;;;;;;;15.07;3.10;;;;;;;9.59;100.00;100682.72;5246756;28;20430;-64
2022/11/07 05:47:28;;;;;;;14.77;3.03;;;;;;;9.61;100.00;100679.94;5247988;28;20036;-63
2022/11/07 05:49:59;;;;;;;11.52;2.92;;;;;;;9.64;100.00;100678.84;5251811;28;20032;-64
2022/11/07 05:52:31;;;;;;;16.25;3.15;;;;;;;9.63;100.00;100678.00;5247304;28;20021;-63
2022/11/07 05:55:02;;;;;;;13.45;3.80;;;;;;;9.66;100.00;100675.09;5247343;28;20572;-65
2022/11/07 05:57:34;;;;;;;15.05;3.50;;;;;;;9.64;100.00;100678.84;5244137;28;20033;-63
2022/11/07 06:00:06;;;;;;;11.40;2.72;;;;;;;9.66;100.00;100682.25;5250654;28;20039;-63
2022/11/07 06:02:37;;;;;;;14.40;2.95;;;;;;;9.69;100.00;100682.03;5250582;28;20398;-63
2022/11/07 06:05:10;;;;;;;12.40;2.90;;;;;;;9.75;100.00;100674.41;5250892;28;20056;-71
2022/11/07 06:07:41;;;;;;;16.60;3.28;;;;;;;9.72;100.00;100681.78;5250118;28;20411;-64
2022/11/07 06:10:13;;;;;;;11.70;3.00;;;;;;;9.79;100.00;100678.53;5247883;28;20032;-69
2022/11/07 06:12:44;;;;;;;14.98;3.63;;;;;;;9.76;100.00;100683.25;5248216;28;20479;-69
2022/11/07 06:15:15;;;;;;;11.63;3.58;;;;;;;9.82;100.00;100683.63;5249146;28;20024;-65
2022/11/07 06:17:47;;;;;;;11.63;3.30;;;;;;;9.78;100.00;100679.50;5247761;28;20391;-64
2022/11/07 06:20:18;;;;;;;12.45;3.17;;;;;;;9.78;100.00;100676.84;5241065;28;20486;-71
2022/11/07 06:22:50;;;;;;;11.45;3.05;;;;;;;9.86;100.00;100683.41;5243875;28;20074;-64
2022/11/07 06:25:21;;;;;;;12.80;3.22;;;;;;;9.81;100.00;100681.09;5247968;28;20052;-65
2022/11/07 06:27:57;;;;;;;14.40;3.08;;;;;;;9.86;100.00;100691.41;5245406;28;20064;-66
2022/11/07 06:30:28;;;;;;;15.30;3.10;;;;;;;9.82;100.00;100690.78;5251462;28;20083;-64
2022/11/07 06:33:06;;;;;;;11.80;3.17;;;;;;;9.83;100.00;100692.47;5228279;28;20491;-66
2022/11/07 06:35:37;;;;;;;17.98;4.25;;;;;;;9.86;100.00;100694.91;5250178;28;20013;-64
2022/11/07 06:38:11;;;;;;;16.50;3.50;;;;;;;9.90;100.00;100699.03;5246555;28;20574;-64
2022/11/07 06:40:43;;;;;;;15.30;3.75;;;;;;;9.92;100.00;100699.78;5242745;28;20056;-64
2022/11/07 06:43:17;;;;;;;16.60;3.85;;;;;;;9.93;100.00;100693.50;5255900;28;20096;-64
2022/11/07 06:45:49;;;;;;;;;;;;;;;9.94;100.00;100697.84;5251123;28;20104;-64
2022/11/07 06:48:20;;;;;;;12.77;3.10;;;;;;;9.92;100.00;100699.78;5243088;28;19916;-64
2022/11/07 06:51:03;;;;;;;21.05;3.42;;;;;;;9.97;100.00;100710.06;5249520;28;20383;-64
2022/11/07 06:53:34;;;;;;;12.88;3.08;;;;;;;9.98;100.00;100703.78;5231006;28;20057;-64
2022/11/07 06:56:09;;;;;;;17.60;4.25;;;;;;;9.99;100.00;100722.34;5245496;28;20025;-64
2022/11/07 06:58:41;;;;;;;14.77;3.55;;;;;;;10.02;100.00;100714.09;5247069;28;20040;-64
2022/11/07 07:01:13;;;;;;;13.32;2.90;;;;;;;10.05;100.00;100721.03;5248605;28;20140;-64
2022/11/07 07:03:45;;;;;;;17.48;3.58;;;;;;;10.05;100.00;100717.47;5251050;28;20040;-64
2022/11/07 07:06:16;;;;;;;10.48;2.80;;;;;;;10.06;100.00;100725.38;5251162;28;20051;-64
2022/11/07 07:08:48;;;;;;;16.70;3.85;;;;;;;10.09;100.00;100725.16;5247360;28;20025;-64
2022/11/07 07:11:19;;;;;;;14.00;3.25;;;;;;;10.11;100.00;100733.88;5254349;28;20111;-64
2022/11/07 07:13:50;;;;;;;13.50;2.58;;;;;;;10.17;100.00;100732.56;5247479;28;20040;-64
2022/11/07 07:16:21;;;;;;;15.68;3.25;;;;;;;10.18;100.00;100736.91;5239668;28;20549;-64
2022/11/07 07:18:53;;;;;;;15.77;3.50;;;;;;;10.13;100.00;100734.59;5244908;28;20376;-64
2022/11/07 07:21:25;;;;;;;13.23;2.60;;;;;;;10.17;100.00;100737.88;5246388;28;20566;-64
2022/11/07 07:23:56;;;;;;;15.95;3.45;;;;;;;10.12;100.00;100734.72;5249405;28;21170;-64
2022/11/07 07:26:27;;;;;;;12.30;2.72;;;;;;;10.16;100.00;100745.03;5248678;28;20501;-64
2022/11/07 07:28:58;;;;;;;13.55;2.72;;;;;;;10.18;100.00;100750.22;5250736;28;20033;-64
2022/11/07 07:31:31;;;;;;;14.88;2.88;;;;;;;10.19;100.00;100739.47;5247754;28;20047;-65
2022/11/07 07:34:02;;;;;;;13.90;3.08;;;;;;;10.23;100.00;100745.41;5248401;28;20040;-65
2022/11/07 07:36:33;;;;;;;14.73;2.90;;;;;;;10.30;100.00;100746.69;5249219;28;20028;-64
2022/11/07 07:39:04;;;;;;;11.85;3.20;;;;;;;10.32;100.00;100749.22;5250521;28;20066;-64
2022/11/07 07:41:36;;;;;;;15.75;2.97;;;;;;;10.36;100.00;100762.19;5252731;28;20061;-66
2022/11/07 07:44:07;;;;;;;10.55;2.80;;;;;;;10.40;100.00;100760.16;5246190;28;20458;-68
2022/11/07 07:46:38;;;;;;;15.52;2.85;;;;;;;10.43;100.00;100767.91;5250483;28;20510;-71
2022/11/07 07:49:10;;;;;;;16.60;3.70;;;;;;;10.48;100.00;100765.72;5253699;28;20028;-69
2022/11/07 07:51:41;;;;;;;13.55;2.72;;;;;;;10.51;100.00;100767.34;5243322;28;20209;-69
2022/11/07 07:54:12;;;;;;;13.20;3.00;;;;;;;10.54;100.00;100770.59;5250787;28;20405;-69
2022/11/07 07:56:44;;;;;;;15.68;3.28;;;;;;;10.56;100.00;100770.47;5248386;28;20958;-69
2022/11/07 07:59:15;;;;;;;11.13;2.97;;;;;;;10.61;100.00;100776.31;5248013;28;20035;-69
2022/11/07 08:01:46;;;;;;;16.60;3.58;;;;;;;10.70;100.00;100775.59;5250380;28;20035;-68
2022/11/07 08:04:17;;;;;;;15.65;3.22;;;;;;;10.75;100.00;100768.06;5246996;28;20040;-70
2022/11/07 08:06:49;;;;;;;11.57;3.00;;;;;;;10.83;100.00;100774.63;5249724;28;20044;-69
2022/11/07 08:09:20;;;;;;;17.17;3.25;;;;;;;10.82;100.00;100776.44;5245617;28;20024;-69
2022/11/07 08:11:51;;;;;;;14.35;3.72;;;;;;;10.83;100.00;100774.63;5249162;28;20037;-69
2022/11/07 08:14:23;;;;;;;14.23;3.08;;;;;;;10.87;100.00;100771.56;5251508;28;20032;-69
2022/11/07 08:16:54;;;;;;;14.32;2.78;;;;;;;10.88;100.00;100775.97;5245131;28;20025;-69
2022/11/07 08:19:25;;;;;;;10.88;2.47;;;;;;;10.93;100.00;100779.13;5251543;28;20075;-68
2022/11/07 08:21:57;;;;;;;11.85;2.65;;;;;;;10.95;100.00;100771.84;5249840;28;20021;-69
2022/11/07 08:24:28;;;;;;;12.50;3.30;;;;;;;11.07;100.00;100779.84;5250736;28;20017;-69
2022/11/07 08:26:59;;;;;;;12.38;2.60;;;;;;;11.03;100.00;100776.56;5248556;28;20560;-69
2022/11/07 08:29:30;;;;;;;12.88;2.70;;;;;;;11.06;100.00;100787.00;5246716;28;20434;-69
2022/11/07 08:32:02;;;;;;;14.98;3.47;;;;;;;11.03;100.00;100787.25;5249342;28;20490;-69
2022/11/07 08:34:33;;;;;;;11.23;2.70;;;;;;;11.01;100.00;100785.66;5247993;28;20044;-69
2022/11/07 08:37:04;;;;;;;17.88;3.95;;;;;;;10.98;100.00;100782.25;5249185;28;20082;-69
2022/11/07 08:39:35;;;;;;;11.77;2.90;;;;;;;10.96;100.00;100786.88;5242714;28;20063;-69
2022/11/07 08:42:07;;;;;;;15.25;3.80;;;;;;;11.01;100.00;100793.66;5229710;28;20058;-69
2022/11/07 08:44:38;;;;;;;16.00;3.03;;;;;;;10.97;100.00;100793.94;5252480;28;20035;-69
2022/11/07 08:47:09;;;;;;;12.43;3.20;;;;;;;10.99;100.00;100793.81;5246135;28;20086;-69
2022/11/07 08:49:41;;;;;;;9.80;2.60;;;;;;;11.04;100.00;100802.28;5252660;28;20200;-69
2022/11/07 08:52:12;;;;;;;13.20;2.97;;;;;;;11.20;100.00;100804.59;5249037;28;20071;-69
2022/11/07 08:54:43;;;;;;;14.18;2.90;;;;;;;11.22;100.00;100815.13;5247673;28;20048;-69
2022/11/07 08:57:14;;;;;;;15.13;2.90;;;;;;;11.21;100.00;100810.78;5248012;28;20036;-69
2022/11/07 08:59:46;;;;;;;15.48;3.65;;;;;;;11.26;100.00;100817.47;5245359;28;20083;-69
2022/11/07 09:02:17;;;;;;;13.70;2.70;;;;;;;11.31;100.00;100822.44;5247224;28;20044;-68
2022/11/07 09:04:48;;;;;;;13.05;2.80;;;;;;;11.40;100.00;100835.06;5246331;28;20118;-69
2022/11/07 09:07:19;;;;;;;13.32;3.17;;;;;;;11.41;100.00;100838.56;5245247;28;20033;-69
2022/11/07 09:09:51;;;;;;;14.02;3.25;;;;;;;11.45;100.00;100830.19;5250243;28;20060;-68
2022/11/07 09:12:22;;;;;;;14.40;2.97;;;;;;;11.48;100.00;100835.28;5248252;28;20029;-68
2022/11/07 09:14:53;;;;;;;11.43;2.97;;;;;;;11.51;100.00;100835.03;5249490;28;21987;-69
2022/11/07 09:17:24;;;;;;;11.02;2.80;;;;;;;11.51;100.00;100829.69;5248632;28;20091;-69
2022/11/07 09:19:56;;;;;;;12.68;3.20;;;;;;;11.54;100.00;100833.94;5244584;28;20045;-69
2022/11/07 09:22:27;;;;;;;14.20;3.25;;;;;;;11.58;100.00;100838.06;5245612;28;20029;-69
2022/11/07 09:24:59;;;;;;;15.55;3.50;;;;;;;11.65;100.00;100844.59;5250469;28;20111;-69
2022/11/07 09:27:30;;;;;;;13.73;2.75;;;;;;;11.64;100.00;100845.59;5250564;28;20033;-69
2022/11/07 09:30:03;;;;;;;11.10;2.60;;;;;;;11.67;100.00;100844.47;5247881;28;20025;-69
2022/11/07 09:32:34;;;;;;;11.60;2.90;;;;;;;11.72;100.00;100845.81;5246899;28;20037;-69
2022/11/07 09:35:06;;;;;;;12.82;2.67;;;;;;;11.77;100.00;100846.31;5250681;28;20032;-68
2022/11/07 09:37:38;;;;;;;11.90;3.00;;;;;;;11.79;100.00;100840.81;5251486;28;20029;-68
2022/11/07 09:40:20;;;;;;;14.02;2.75;;;;;;;11.79;100.00;100854.16;5244268;28;20025;-69
2022/11/07 09:43:13;;;;;;;15.80;3.55;;;;;;;11.82;100.00;100837.88;5250586;28;20475;-69
2022/11/07 09:45:57;;;;;;;15.70;3.25;;;;;;;11.88;100.00;100847.22;5248257;28;20166;-69
2022/11/07 09:48:37;;;;;;;17.98;3.08;;;;;;;11.88;100.00;100836.53;5250815;28;20028;-69
2022/11/07 09:51:26;;;;;;;10.88;3.45;;;;;;;11.93;100.00;100843.25;5245236;28;20079;-69
2022/11/07 09:54:03;;;;;;;11.85;3.08;;;;;;;11.94;100.00;100847.59;5249145;28;20044;-69
2022/11/07 09:56:35;;;;;;;10.55;2.85;;;;;;;11.97;100.00;100854.53;5248329;28;20112;-68
2022/11/07 09:59:14;;;;;;;10.25;2.72;;;;;;;12.00;100.00;100850.75;5253651;28;20874;-69
2022/11/07 10:01:45;;;;;;;11.70;3.03;;;;;;;12.03;100.00;100851.34;5254171;28;20017;-68
2022/11/07 10:04:20;;;;;;;10.43;2.42;;;;;;;12.09;100.00;100856.19;5252799;28;20485;-69
2022/11/07 10:06:58;;;;;;;16.95;3.03;;;;;;;12.15;100.00;100854.81;5252781;28;20170;-69
2022/11/07 10:09:42;;;;;;;12.00;2.45;;;;;;;12.13;100.00;100862.13;5256395;28;20028;-69
2022/11/07 10:12:39;;;;;;;12.50;2.90;;;;;;;12.13;100.00;100856.78;5251051;28;20394;-70
2022/11/07 10:15:27;;;;;;;12.55;2.67;;;;;;;12.17;100.00;100855.53;5251321;28;20055;-69
2022/11/07 10:18:06;;;;;;;12.50;2.85;;;;;;;12.20;100.00;100859.81;5253316;28;20024;-70
2022/11/07 10:21:06;;;;;;;12.43;2.30;;;;;;;12.22;100.00;100866.72;5250204;28;20124;-69
2022/11/07 10:23:52;;;;;;;9.32;2.35;;;;;;;12.26;100.00;100862.81;5254379;28;20104;-66
2022/11/07 10:26:27;;;;;;;11.70;2.85;;;;;;;12.28;100.00;100874.22;5248473;28;20037;-66
2022/11/07 10:29:09;;;;;;;14.30;3.25;;;;;;;12.33;100.00;100866.69;5250679;28;20037;-67
2022/11/07 10:31:53;;;;;;;14.38;3.15;;;;;;;12.36;100.00;100861.06;5248986;28;20040;-66
2022/11/07 10:34:29;;;;;;;12.90;2.60;;;;;;;12.39;100.00;100862.66;5250913;28;20033;-66
2022/11/07 10:37:00;;;;;;;15.52;3.22;;;;;;;12.40;100.00;100871.50;5251463;28;20043;-74
2022/11/07 10:39:32;;;;;;;13.88;3.28;;;;;;;12.44;100.00;100879.13;5250740;28;20712;-68
2022/11/07 10:42:11;;;;;;;18.05;3.45;;;;;;;12.49;100.00;100879.63;5246262;28;20088;-67
2022/11/07 10:44:43;;;;;;;16.90;3.22;;;;;;;12.58;100.00;100888.72;5245559;28;20182;-67
2022/11/07 10:47:21;;;;;;;8.70;2.50;;;;;;;12.53;100.00;100881.06;5242658;28;20021;-67
2022/11/07 10:50:20;;;;;;;12.05;3.00;;;;;;;12.58;100.00;100872.66;5252066;28;20037;-67
2022/11/07 10:52:54;;;;;;;11.75;2.47;;;;;;;12.63;100.00;100880.28;5242902;28;20037;-67
2022/11/07 10:55:26;;;;;;;10.93;3.10;;;;;;;12.66;100.00;100890.75;5247492;28;20045;-67
2022/11/07 10:58:04;;;;;;;11.23;3.03;;;;;;;12.72;100.00;100900.91;5247794;28;21857;-67
2022/11/07 11:00:38;;;;;;;11.13;3.20;;;;;;;12.80;100.00;100892.22;5249850;28;20029;-67
2022/11/07 11:03:25;;;;;;;18.60;3.53;;;;;;;12.81;100.00;100897.47;5254712;28;20055;-67
2022/11/07 11:06:08;;;;;;;10.23;2.40;;;;;;;12.83;100.00;100891.97;5246197;28;20040;-67
2022/11/07 11:08:40;;;;;;;12.33;3.33;;;;;;;12.83;100.00;100898.19;5250590;28;20028;-67
2022/11/07 11:11:20;;;;;;;8.02;2.70;;;;;;;12.86;100.00;100903.25;5243833;28;20047;-67
2022/11/07 11:14:15;;;;;;;14.55;2.55;;;;;;;12.88;100.00;100895.09;5246894;28;20403;-67
2022/11/07 11:16:52;;;;;;;11.52;2.80;;;;;;;12.90;100.00;100885.09;5241543;28;20022;-67
2022/11/07 11:19:27;;;;;;;10.07;2.70;;;;;;;12.94;100.00;100878.50;5250119;28;20033;-67
2022/11/07 11:21:58;;;;;;;13.73;2.80;;;;;;;13.03;100.00;100884.91;5251128;28;20412;-67
2022/11/07 11:24:38;;;;;;;9.13;2.30;;;;;;;12.97;100.00;100877.41;5249035;28;20031;-69
2022/11/07 11:27:16;;;;;;;13.60;2.90;;;;;;;12.98;100.00;100874.56;5248865;28;20406;-69
2022/11/07 11:29:57;;;;;;;12.52;2.90;;;;;;;12.98;100.00;100866.53;5249324;28;20020;-67
2022/11/07 11:32:38;;;;;;;9.10;2.45;;;;;;;13.00;100.00;100869.97;5248743;28;20052;-67
2022/11/07 11:35:45;;;;;;;13.98;2.97;;;;;;;13.03;100.00;100872.34;5252594;28;20021;-67
2022/11/07 11:38:27;;;;;;;15.18;2.92;;;;;;;13.05;100.00;100858.84;5251489;28;20033;-67
2022/11/07 11:41:38;;;;;;;15.55;3.42;;;;;;;13.09;100.00;100871.81;5233674;28;20106;-68
2022/11/07 11:44:19;;;;;;;11.68;2.58;;;;;;;13.11;100.00;100867.16;5250518;28;20062;-67
2022/11/07 11:47:09;;;;;;;10.32;2.60;;;;;;;13.14;100.00;100869.59;5249409;28;20059;-67
2022/11/07 11:50:02;;;;;;;10.65;2.83;;;;;;;13.17;100.00;100875.66;5250443;28;20789;-67
2022/11/07 11:52:34;;;;;;;11.48;2.85;;;;;;;13.14;100.00;100869.59;5252570;28;20029;-67
2022/11/07 11:55:14;;;;;;;13.05;2.72;;;;;;;13.21;100.00;100871.72;5248809;28;20544;-67
2022/11/07 11:58:06;;;;;;;10.68;2.75;;;;;;;13.23;100.00;100869.78;5246785;28;20039;-67